Time;durP1;ratioP1;P1;durP2;ratioP2;P2;SDS_P1;SDS_P2;PMS_P1;PMS_P2;Temp;Humidity;BMP_temperature;BMP_pressure;BME280_temperature;BME280_humidity;BME280_pressure;Samples;Min_cycle;Max_cycle;Signal;HPM_P1;HPM_P2
2023/07/01 00:00:46;;;;;;;7.10;3.28;;;;;;;;;;10479705;28;20032;-58
2023/07/01 00:05:47;;;;;;;6.50;3.17;;;;;;;;;;10470168;28;20488;-59
2023/07/01 00:10:47;;;;;;;4.43;3.28;;;;;;;;;;10469807;28;20021;-58
2023/07/01 00:15:48;;;;;;;4.35;3.25;;;;;;;;;;10495743;28;20024;-58
2023/07/01 00:20:49;;;;;;;6.40;3.30;;;;;;;;;;10493971;28;20027;-59
2023/07/01 00:25:50;;;;;;;4.78;3.25;;;;;;;;;;10480685;28;20021;-60
2023/07/01 00:30:50;;;;;;;6.65;3.22;;;;;;;;;;10482249;28;20028;-59
2023/07/01 00:35:51;;;;;;;5.25;3.13;;;;;;;;;;10491709;28;20045;-59
2023/07/01 00:40:51;;;;;;;8.30;3.80;;;;;;;;;;10484738;28;20552;-59
2023/07/01 00:45:52;;;;;;;3.67;3.30;;;;;;;;;;10493302;28;20151;-59
2023/07/01 00:50:53;;;;;;;5.00;3.47;;;;;;;;;;10478980;28;20027;-59
2023/07/01 00:55:54;;;;;;;4.53;3.20;;;;;;;;;;10476381;28;20060;-58
2023/07/01 01:00:56;;;;;;;9.30;3.67;;;;;;;;;;10468534;28;21369;-58
2023/07/01 01:06:19;;;;;;;5.25;3.75;;;;;;;;;;10477484;28;20040;-58
2023/07/01 01:11:22;;;;;;;5.90;3.95;;;;;;;;;;10472658;28;20044;-58
2023/07/01 01:16:24;;;;;;;5.30;3.75;;;;;;;;;;10480493;28;20064;-58
2023/07/01 01:21:25;;;;;;;5.63;3.83;;;;;;;;;;10490039;28;20050;-58
2023/07/01 01:26:32;;;;;;;8.82;4.35;;;;;;;;;;10489100;28;20391;-59
2023/07/01 01:31:33;;;;;;;8.38;4.00;;;;;;;;;;10482609;28;20032;-58
2023/07/01 01:36:53;;;;;;;6.93;4.55;;;;;;;;;;10486926;28;20035;-60
2023/07/01 01:42:14;;;;;;;14.45;4.28;;;;;;;;;;10478072;28;20074;-58
2023/07/01 01:47:22;;;;;;;6.55;4.25;;;;;;;;;;10475919;28;20031;-60
2023/07/01 01:52:24;;;;;;;8.13;4.25;;;;;;;;;;10485118;28;20388;-58
2023/07/01 01:57:25;;;;;;;9.02;4.50;;;;;;;;;;10484560;28;20392;-58
2023/07/01 02:02:26;;;;;;;5.53;4.40;;;;;;;;;;10477230;28;20020;-58
2023/07/01 02:07:26;;;;;;;8.13;4.20;;;;;;;;;;10485363;28;20028;-60
2023/07/01 02:12:27;;;;;;;9.63;4.50;;;;;;;;;;10468653;28;20031;-60
2023/07/01 02:17:27;;;;;;;7.50;4.72;;;;;;;;;;10489837;28;20472;-59
2023/07/01 02:22:28;;;;;;;6.65;4.75;;;;;;;;;;10488593;28;20032;-59
2023/07/01 02:27:30;;;;;;;5.32;4.60;;;;;;;;;;10490506;28;20039;-60
2023/07/01 02:32:31;;;;;;;10.57;4.05;;;;;;;;;;10485540;28;20522;-59
2023/07/01 02:37:31;;;;;;;7.28;4.35;;;;;;;;;;10486418;28;20048;-60
2023/07/01 02:42:32;;;;;;;7.63;4.53;;;;;;;;;;10487317;28;20394;-60
2023/07/01 02:47:33;;;;;;;7.20;4.10;;;;;;;;;;10486223;28;20017;-60
2023/07/01 02:52:34;;;;;;;6.63;4.32;;;;;;;;;;10482277;28;20568;-60
2023/07/01 02:57:35;;;;;;;9.70;4.30;;;;;;;;;;10494731;28;20043;-60
2023/07/01 03:02:35;;;;;;;8.10;4.28;;;;;;;;;;10486162;28;20020;-60
2023/07/01 03:07:36;;;;;;;5.80;4.60;;;;;;;;;;10463800;28;20024;-60
2023/07/01 03:12:37;;;;;;;8.25;5.22;;;;;;;;;;10476963;28;20028;-60
2023/07/01 03:17:37;;;;;;;9.45;5.07;;;;;;;;;;10462086;28;20086;-60
2023/07/01 03:22:38;;;;;;;7.60;4.65;;;;;;;;;;10476959;28;20021;-59
2023/07/01 03:27:38;;;;;;;13.63;5.13;;;;;;;;;;10487909;28;20039;-59
2023/07/01 03:32:40;;;;;;;10.70;5.60;;;;;;;;;;10475149;28;20071;-58
2023/07/01 03:37:43;;;;;;;6.85;5.32;;;;;;;;;;10488194;28;20044;-59
2023/07/01 03:42:44;;;;;;;7.60;5.20;;;;;;;;;;10495557;28;20029;-58
2023/07/01 03:47:45;;;;;;;7.93;4.88;;;;;;;;;;10495078;28;20032;-58
2023/07/01 03:52:46;;;;;;;12.70;4.68;;;;;;;;;;10495637;28;20028;-59
2023/07/01 03:57:46;;;;;;;6.43;4.30;;;;;;;;;;10494485;28;20050;-59
2023/07/01 04:02:49;;;;;;;10.38;4.80;;;;;;;;;;10481629;28;20364;-59
2023/07/01 04:07:50;;;;;;;8.75;4.75;;;;;;;;;;10494021;28;20021;-60
2023/07/01 04:12:50;;;;;;;14.60;3.80;;;;;;;;;;10493268;28;20013;-59
2023/07/01 04:17:52;;;;;;;7.13;4.30;;;;;;;;;;10492028;28;20460;-59
2023/07/01 04:22:52;;;;;;;12.32;3.60;;;;;;;;;;10491281;28;20453;-60
2023/07/01 04:27:54;;;;;;;8.35;3.60;;;;;;;;;;10494912;28;20081;-59
2023/07/01 04:32:54;;;;;;;8.63;3.75;;;;;;;;;;10481410;28;20150;-59
2023/07/01 04:37:55;;;;;;;8.05;3.40;;;;;;;;;;10481373;28;20123;-58
2023/07/01 04:42:55;;;;;;;6.15;3.33;;;;;;;;;;10480283;28;20040;-58
2023/07/01 04:47:56;;;;;;;4.78;3.35;;;;;;;;;;10483653;28;20496;-60
2023/07/01 04:52:57;;;;;;;7.68;3.70;;;;;;;;;;10481451;28;20484;-59
2023/07/01 04:57:57;;;;;;;7.07;3.15;;;;;;;;;;10479962;28;20029;-59
2023/07/01 05:02:58;;;;;;;3.83;2.90;;;;;;;;;;10493425;28;20258;-60
2023/07/01 05:07:58;;;;;;;4.68;2.80;;;;;;;;;;10486709;28;20020;-59
2023/07/01 05:12:59;;;;;;;3.90;2.97;;;;;;;;;;10488906;28;20047;-59
2023/07/01 05:17:59;;;;;;;4.78;2.92;;;;;;;;;;10489302;28;20017;-59
2023/07/01 05:23:00;;;;;;;6.13;3.10;;;;;;;;;;10487267;28;20025;-59
2023/07/01 05:28:01;;;;;;;4.63;3.20;;;;;;;;;;10490849;28;20032;-60
2023/07/01 05:33:01;;;;;;;5.30;3.08;;;;;;;;;;10491630;28;20051;-58
2023/07/01 05:38:13;;;;;;;3.05;2.60;;;;;;;;;;10490744;28;20469;-59
2023/07/01 05:43:13;;;;;;;3.45;2.58;;;;;;;;;;10490793;28;20032;-59
2023/07/01 05:48:14;;;;;;;4.00;2.67;;;;;;;;;;10490241;28;20036;-59
2023/07/01 05:53:14;;;;;;;3.33;2.75;;;;;;;;;;10477121;28;20056;-59
2023/07/01 05:58:15;;;;;;;6.65;2.65;;;;;;;;;;10468085;28;20037;-58
2023/07/01 06:03:16;;;;;;;4.70;2.50;;;;;;;;;;10484930;28;20029;-59
2023/07/01 06:08:16;;;;;;;3.10;2.45;;;;;;;;;;10490426;28;20024;-59
2023/07/01 06:13:17;;;;;;;4.03;2.58;;;;;;;;;;10489183;28;20036;-58
2023/07/01 06:18:17;;;;;;;5.65;2.60;;;;;;;;;;10490050;28;20024;-59
2023/07/01 06:23:18;;;;;;;3.45;2.50;;;;;;;;;;10488897;28;20278;-59
2023/07/01 06:28:18;;;;;;;3.00;2.70;;;;;;;;;;10490552;28;20711;-58
2023/07/01 06:33:19;;;;;;;2.90;2.60;;;;;;;;;;10481232;28;20052;-58
2023/07/01 06:38:20;;;;;;;3.28;2.70;;;;;;;;;;10488049;28;20025;-58
2023/07/01 06:43:20;;;;;;;3.10;2.80;;;;;;;;;;10480715;28;20043;-58
2023/07/01 06:48:21;;;;;;;3.30;2.63;;;;;;;;;;10482439;28;20020;-58
2023/07/01 06:53:21;;;;;;;2.85;2.45;;;;;;;;;;10480055;28;20484;-59
2023/07/01 06:58:22;;;;;;;3.85;2.55;;;;;;;;;;10485190;28;20021;-58
2023/07/01 07:03:22;;;;;;;6.03;2.65;;;;;;;;;;10486004;28;20538;-58
2023/07/01 07:08:23;;;;;;;3.90;2.45;;;;;;;;;;10480658;28;20052;-59
2023/07/01 07:13:24;;;;;;;4.25;2.50;;;;;;;;;;10480581;28;20031;-58
2023/07/01 07:18:24;;;;;;;4.45;2.53;;;;;;;;;;10488419;28;20086;-61
2023/07/01 07:23:25;;;;;;;2.50;2.25;;;;;;;;;;10494562;28;20024;-58
2023/07/01 07:28:25;;;;;;;5.13;2.42;;;;;;;;;;10495017;28;20028;-58
2023/07/01 07:34:35;;;;;;;2.72;2.42;;;;;;;;;;10482623;28;20307;-61
2023/07/01 07:39:36;;;;;;;2.72;2.25;;;;;;;;;;10494870;28;20039;-59
2023/07/01 07:44:36;;;;;;;4.32;2.20;;;;;;;;;;10496861;28;20480;-59
2023/07/01 07:49:37;;;;;;;4.70;2.50;;;;;;;;;;10496824;28;20040;-58
2023/07/01 07:54:37;;;;;;;4.13;2.55;;;;;;;;;;10484863;28;20400;-58
2023/07/01 07:59:40;;;;;;;2.88;2.10;;;;;;;;;;10485242;28;20473;-58
2023/07/01 08:04:40;;;;;;;2.90;2.40;;;;;;;;;;10494282;28;20495;-58
2023/07/01 08:09:41;;;;;;;4.00;2.58;;;;;;;;;;10493946;28;20046;-59
2023/07/01 08:14:41;;;;;;;4.75;2.42;;;;;;;;;;10502982;28;20044;-59
2023/07/01 08:19:43;;;;;;;2.88;2.03;;;;;;;;;;10470339;28;20601;-58
2023/07/01 08:24:44;;;;;;;6.07;2.22;;;;;;;;;;10489058;28;20025;-60
2023/07/01 08:29:44;;;;;;;4.15;2.50;;;;;;;;;;10468499;28;20029;-62
2023/07/01 08:34:45;;;;;;;7.80;3.00;;;;;;;;;;10482049;28;20094;-62
2023/07/01 08:39:46;;;;;;;9.80;3.45;;;;;;;;;;10492612;28;20028;-62
2023/07/01 08:44:50;;;;;;;9.85;3.47;;;;;;;;;;10491780;28;20452;-62
2023/07/01 08:49:55;;;;;;;11.68;3.50;;;;;;;;;;10478156;28;20028;-62
2023/07/01 08:54:55;;;;;;;8.00;3.45;;;;;;;;;;10488693;28;20425;-61
2023/07/01 08:59:56;;;;;;;12.88;3.03;;;;;;;;;;10489916;28;20028;-60
2023/07/01 09:04:57;;;;;;;4.95;2.97;;;;;;;;;;10489754;28;20094;-60
2023/07/01 09:10:00;;;;;;;8.73;3.30;;;;;;;;;;10485147;28;20091;-60
2023/07/01 09:15:06;;;;;;;5.80;3.40;;;;;;;;;;10487807;28;20535;-60
2023/07/01 09:20:11;;;;;;;7.88;3.33;;;;;;;;;;10484071;28;20400;-61
2023/07/01 09:25:38;;;;;;;6.32;3.28;;;;;;;;;;10489904;28;20020;-60
2023/07/01 09:30:40;;;;;;;4.60;2.80;;;;;;;;;;10474279;28;20032;-58
2023/07/01 09:35:45;;;;;;;3.92;3.17;;;;;;;;;;10489653;28;20488;-59
2023/07/01 09:40:46;;;;;;;7.68;3.33;;;;;;;;;;10488410;28;20032;-59
2023/07/01 09:45:54;;;;;;;5.68;3.10;;;;;;;;;;10488990;28;20017;-58
2023/07/01 09:51:02;;;;;;;4.55;2.95;;;;;;;;;;10489740;28;20041;-60
2023/07/01 09:56:04;;;;;;;5.43;3.15;;;;;;;;;;10466543;28;20388;-60
2023/07/01 10:01:05;;;;;;;6.75;3.30;;;;;;;;;;10490529;28;20447;-60
2023/07/01 10:06:06;;;;;;;5.38;3.10;;;;;;;;;;10490611;28;20028;-60
2023/07/01 10:11:15;;;;;;;4.53;3.08;;;;;;;;;;10487132;28;20036;-60
2023/07/01 10:16:18;;;;;;;3.53;3.00;;;;;;;;;;10484098;28;20086;-60
2023/07/01 10:21:29;;;;;;;4.25;2.90;;;;;;;;;;10483283;28;20060;-60
2023/07/01 10:26:39;;;;;;;6.57;3.35;;;;;;;;;;10483654;28;20051;-60
2023/07/01 10:31:40;;;;;;;6.22;3.10;;;;;;;;;;10480668;28;20392;-59
2023/07/01 10:37:10;;;;;;;9.35;3.33;;;;;;;;;;10489516;28;20021;-60
2023/07/01 10:42:34;;;;;;;5.70;3.33;;;;;;;;;;10475645;28;20442;-59
2023/07/01 10:47:34;;;;;;;5.07;3.47;;;;;;;;;;10489997;28;20120;-60
2023/07/01 10:52:56;;;;;;;8.75;3.30;;;;;;;;;;10496301;28;20381;-60
2023/07/01 10:58:12;;;;;;;4.97;2.97;;;;;;;;;;10495967;28;20081;-59
2023/07/01 11:03:34;;;;;;;3.17;2.90;;;;;;;;;;10502312;28;20395;-60
2023/07/01 11:08:50;;;;;;;5.85;3.25;;;;;;;;;;10496244;28;20086;-60
2023/07/01 11:14:11;;;;;;;3.47;2.97;;;;;;;;;;10492968;28;20028;-60
2023/07/01 11:19:16;;;;;;;3.45;3.00;;;;;;;;;;10496214;28;20033;-60
2023/07/01 11:24:26;;;;;;;4.30;3.30;;;;;;;;;;10495891;28;20021;-60
2023/07/01 11:29:26;;;;;;;4.65;3.05;;;;;;;;;;10498340;28;20033;-60
2023/07/01 11:34:28;;;;;;;5.75;3.20;;;;;;;;;;10488335;28;20109;-60
2023/07/01 11:39:29;;;;;;;3.72;2.90;;;;;;;;;;10485592;28;20032;-60
2023/07/01 11:44:34;;;;;;;3.08;2.72;;;;;;;;;;10493730;28;20039;-59
2023/07/01 11:49:34;;;;;;;3.70;2.90;;;;;;;;;;10488319;28;20082;-60
2023/07/01 11:54:47;;;;;;;4.45;2.80;;;;;;;;;;10493901;28;20094;-60
2023/07/01 11:59:58;;;;;;;5.80;2.80;;;;;;;;;;10488666;28;20032;-60
2023/07/01 12:05:00;;;;;;;3.50;3.03;;;;;;;;;;10495037;28;20024;-60
2023/07/01 12:10:21;;;;;;;3.67;3.17;;;;;;;;;;10470929;28;20031;-60
2023/07/01 12:15:23;;;;;;;5.25;3.70;;;;;;;;;;10483291;28;20166;-60
2023/07/01 12:20:23;;;;;;;3.45;2.97;;;;;;;;;;10490981;28;20112;-60
2023/07/01 12:25:27;;;;;;;4.35;3.17;;;;;;;;;;10481627;28;20032;-60
2023/07/01 12:30:27;;;;;;;6.35;2.88;;;;;;;;;;10482767;28;20025;-59
2023/07/01 12:35:28;;;;;;;4.38;2.83;;;;;;;;;;10494162;28;20094;-62
2023/07/01 12:40:29;;;;;;;3.13;2.70;;;;;;;;;;10484693;28;20036;-61
2023/07/01 12:45:29;;;;;;;3.58;3.00;;;;;;;;;;10489150;28;20021;-60
2023/07/01 12:50:31;;;;;;;3.95;3.10;;;;;;;;;;10482116;28;20040;-61
2023/07/01 12:55:32;;;;;;;4.28;3.40;;;;;;;;;;10489407;28;20143;-61
2023/07/01 13:00:32;;;;;;;4.13;3.15;;;;;;;;;;10490377;28;20059;-61
2023/07/01 13:05:33;;;;;;;4.80;3.22;;;;;;;;;;10479520;28;20029;-61
2023/07/01 13:10:42;;;;;;;4.75;3.33;;;;;;;;;;10481958;28;20020;-61
2023/07/01 13:15:48;;;;;;;4.70;3.08;;;;;;;;;;10489341;28;20036;-61
2023/07/01 13:20:49;;;;;;;3.55;3.17;;;;;;;;;;10481414;28;20454;-61
2023/07/01 13:25:53;;;;;;;4.95;3.00;;;;;;;;;;10485460;28;20029;-59
2023/07/01 13:30:53;;;;;;;4.88;3.28;;;;;;;;;;10464671;28;20036;-59
2023/07/01 13:35:55;;;;;;;6.20;3.08;;;;;;;;;;10475797;28;20044;-59
2023/07/01 13:40:55;;;;;;;5.35;3.20;;;;;;;;;;10476877;28;20024;-60
2023/07/01 13:46:06;;;;;;;5.68;2.92;;;;;;;;;;10481208;28;21188;-59
2023/07/01 13:51:07;;;;;;;4.20;3.10;;;;;;;;;;10415910;28;20048;-59
2023/07/01 13:56:07;;;;;;;3.65;3.28;;;;;;;;;;10415471;28;20462;-59
2023/07/01 14:01:10;;;;;;;6.57;3.40;;;;;;;;;;10422446;28;20024;-58
2023/07/01 14:06:11;;;;;;;3.80;2.78;;;;;;;;;;10407463;28;20154;-59
2023/07/01 14:11:18;;;;;;;6.55;3.10;;;;;;;;;;10411804;28;20280;-62
2023/07/01 14:16:21;;;;;;;4.05;3.10;;;;;;;;;;10418548;28;20029;-60
2023/07/01 14:21:28;;;;;;;6.43;3.33;;;;;;;;;;10444823;28;20040;-60
2023/07/01 14:26:30;;;;;;;5.20;3.40;;;;;;;;;;10409373;28;20532;-61
2023/07/01 14:31:32;;;;;;;9.38;2.88;;;;;;;;;;10417827;28;20037;-57
2023/07/01 14:36:45;;;;;;;3.15;2.70;;;;;;;;;;10412982;28;20425;-61
2023/07/01 14:41:46;;;;;;;3.35;2.80;;;;;;;;;;10427474;28;20033;-61
2023/07/01 14:46:46;;;;;;;3.88;3.17;;;;;;;;;;10403134;28;20392;-61
2023/07/01 14:51:47;;;;;;;3.78;3.20;;;;;;;;;;10397128;28;20381;-61
2023/07/01 14:56:51;;;;;;;3.50;2.65;;;;;;;;;;10419348;28;20056;-61
2023/07/01 15:01:52;;;;;;;4.18;2.80;;;;;;;;;;10383862;28;20037;-61
2023/07/01 15:06:54;;;;;;;3.08;2.78;;;;;;;;;;10397227;28;20072;-60
2023/07/01 15:11:55;;;;;;;4.55;3.28;;;;;;;;;;10386362;28;20117;-61
2023/07/01 15:16:55;;;;;;;4.25;2.90;;;;;;;;;;10372613;28;20026;-60
2023/07/01 15:21:56;;;;;;;7.72;2.92;;;;;;;;;;10396705;28;20029;-60
2023/07/01 15:26:57;;;;;;;3.53;2.80;;;;;;;;;;10382936;28;20026;-60
2023/07/01 15:31:58;;;;;;;3.15;2.50;;;;;;;;;;10392028;28;20045;-62
2023/07/01 15:36:58;;;;;;;4.85;2.80;;;;;;;;;;10387119;28;20025;-61
2023/07/01 15:41:59;;;;;;;3.83;2.63;;;;;;;;;;10389157;28;20052;-61
2023/07/01 15:47:00;;;;;;;3.08;2.50;;;;;;;;;;10387498;28;20030;-62
2023/07/01 15:52:00;;;;;;;5.18;3.00;;;;;;;;;;10398871;28;20018;-61
2023/07/01 15:57:02;;;;;;;4.05;2.70;;;;;;;;;;10375750;28;20034;-62
2023/07/01 16:02:05;;;;;;;3.53;2.67;;;;;;;;;;10397580;28;20041;-62
2023/07/01 16:07:58;;;;;;;3.33;2.50;;;;;;;;;;10392277;28;20021;-61
2023/07/01 16:13:04;;;;;;;5.15;3.08;;;;;;;;;;10385299;28;20052;-62
2023/07/01 16:18:40;;;;;;;3.70;2.72;;;;;;;;;;10389599;28;20091;-61
2023/07/01 16:23:52;;;;;;;4.53;3.17;;;;;;;;;;10381067;28;20033;-62
2023/07/01 16:28:54;;;;;;;4.30;2.78;;;;;;;;;;10399603;28;20070;-62
2023/07/01 16:33:56;;;;;;;3.38;2.45;;;;;;;;;;10393185;28;20025;-62
2023/07/01 16:39:00;;;;;;;4.68;3.13;;;;;;;;;;10388828;28;20040;-61
2023/07/01 16:44:00;;;;;;;4.50;2.67;;;;;;;;;;10401928;28;20412;-61
2023/07/01 16:49:05;;;;;;;3.63;2.58;;;;;;;;;;10394701;28;20037;-62
2023/07/01 16:54:14;;;;;;;4.63;2.90;;;;;;;;;;10397259;28;20456;-62
2023/07/01 16:59:29;;;;;;;4.22;2.55;;;;;;;;;;10391598;28;20376;-61
2023/07/01 17:04:31;;;;;;;2.88;2.60;;;;;;;;;;10396946;28;20125;-61
2023/07/01 17:09:38;;;;;;;7.97;2.80;;;;;;;;;;10370697;28;20484;-61
2023/07/01 17:14:50;;;;;;;3.45;2.72;;;;;;;;;;10390106;28;20026;-61
2023/07/01 17:19:51;;;;;;;5.47;2.80;;;;;;;;;;10365734;28;20449;-61
2023/07/01 17:24:52;;;;;;;3.33;2.92;;;;;;;;;;10380769;28;20037;-62
2023/07/01 17:29:53;;;;;;;3.45;2.88;;;;;;;;;;10384757;28;20056;-60
2023/07/01 17:35:10;;;;;;;4.72;3.00;;;;;;;;;;10376901;28;20037;-59
2023/07/01 17:40:12;;;;;;;5.07;3.25;;;;;;;;;;10393130;28;20361;-60
2023/07/01 17:45:13;;;;;;;4.43;3.10;;;;;;;;;;10391617;28;20046;-60
2023/07/01 17:50:15;;;;;;;3.50;2.90;;;;;;;;;;10405154;28;20029;-61
2023/07/01 17:55:16;;;;;;;6.97;3.30;;;;;;;;;;10378728;28;20221;-61
2023/07/01 18:00:17;;;;;;;7.13;3.42;;;;;;;;;;10401533;28;20168;-61
2023/07/01 18:05:18;;;;;;;6.38;3.33;;;;;;;;;;10392489;28;20146;-61
2023/07/01 18:10:19;;;;;;;3.00;2.58;;;;;;;;;;10382506;28;20116;-61
2023/07/01 18:15:20;;;;;;;4.88;3.20;;;;;;;;;;10373026;28;20169;-61
2023/07/01 18:20:20;;;;;;;3.45;2.92;;;;;;;;;;10375411;28;20041;-61
2023/07/01 18:25:21;;;;;;;5.05;3.00;;;;;;;;;;10377006;28;20029;-61
2023/07/01 18:30:21;;;;;;;4.18;3.13;;;;;;;;;;10379214;28;20026;-60
2023/07/01 18:35:22;;;;;;;4.00;2.85;;;;;;;;;;10400957;28;20393;-61
2023/07/01 18:40:22;;;;;;;4.70;2.95;;;;;;;;;;10398428;28;20362;-61
2023/07/01 18:45:23;;;;;;;4.07;2.88;;;;;;;;;;10386103;28;20588;-61
2023/07/01 18:50:23;;;;;;;5.07;3.10;;;;;;;;;;10391696;28;20107;-61
2023/07/01 18:55:24;;;;;;;3.33;2.67;;;;;;;;;;10401935;28;20037;-62
2023/07/01 19:00:26;;;;;;;3.33;2.70;;;;;;;;;;10394253;28;20175;-61
2023/07/01 19:05:26;;;;;;;6.30;3.13;;;;;;;;;;10421798;28;20047;-60
2023/07/01 19:10:27;;;;;;;4.03;2.78;;;;;;;;;;10414934;28;20495;-61
2023/07/01 19:15:27;;;;;;;3.20;2.40;;;;;;;;;;10404396;28;20497;-61
2023/07/01 19:20:58;;;;;;;4.50;2.75;;;;;;;;;;10390958;28;20396;-60
2023/07/01 19:25:59;;;;;;;4.03;2.80;;;;;;;;;;10393892;28;20060;-61
2023/07/01 19:31:00;;;;;;;3.80;2.95;;;;;;;;;;10401047;28;20091;-60
2023/07/01 19:36:00;;;;;;;4.35;2.80;;;;;;;;;;10384554;28;20022;-60
2023/07/01 19:41:01;;;;;;;3.78;2.65;;;;;;;;;;10389554;28;20029;-60
2023/07/01 19:46:02;;;;;;;4.50;2.75;;;;;;;;;;10386874;28;20211;-61
2023/07/01 19:51:02;;;;;;;5.72;2.90;;;;;;;;;;10389738;28;20026;-60
2023/07/01 19:56:04;;;;;;;3.00;2.70;;;;;;;;;;10387682;28;20065;-59
2023/07/01 20:01:04;;;;;;;5.50;3.30;;;;;;;;;;10391789;28;20029;-60
2023/07/01 20:06:05;;;;;;;4.63;3.25;;;;;;;;;;10382902;28;20480;-61
2023/07/01 20:11:06;;;;;;;5.32;3.20;;;;;;;;;;10375543;28;20110;-60
2023/07/01 20:16:06;;;;;;;3.70;3.00;;;;;;;;;;10381068;28;20041;-61
2023/07/01 20:21:07;;;;;;;3.50;3.20;;;;;;;;;;10382998;28;20029;-61
2023/07/01 20:26:08;;;;;;;5.53;3.40;;;;;;;;;;10390605;28;20038;-60
2023/07/01 20:31:08;;;;;;;3.83;3.38;;;;;;;;;;10370804;28;20053;-60
2023/07/01 20:36:09;;;;;;;5.57;3.33;;;;;;;;;;10373140;28;20470;-61
2023/07/01 20:41:09;;;;;;;5.20;3.83;;;;;;;;;;10404457;28;20040;-59
2023/07/01 20:46:11;;;;;;;7.07;3.88;;;;;;;;;;10374781;28;20481;-60
2023/07/01 20:51:12;;;;;;;7.03;4.20;;;;;;;;;;10391342;28;20037;-61
2023/07/01 20:56:12;;;;;;;4.78;3.85;;;;;;;;;;10372734;28;20033;-60
2023/07/01 21:01:13;;;;;;;6.93;3.60;;;;;;;;;;10381239;28;20030;-61
2023/07/01 21:06:14;;;;;;;6.72;4.00;;;;;;;;;;10373049;28;20029;-61
2023/07/01 21:11:14;;;;;;;12.88;4.07;;;;;;;;;;10389061;28;20034;-60
2023/07/01 21:16:15;;;;;;;8.65;4.63;;;;;;;;;;10394495;28;20046;-60
2023/07/01 21:21:15;;;;;;;6.65;4.07;;;;;;;;;;10404227;28;20025;-60
2023/07/01 21:26:23;;;;;;;5.72;4.25;;;;;;;;;;10369284;28;20025;-61
2023/07/01 21:31:25;;;;;;;7.35;4.20;;;;;;;;;;10374278;28;20425;-61
2023/07/01 21:36:25;;;;;;;11.15;4.15;;;;;;;;;;10389215;28;20172;-61
2023/07/01 21:41:26;;;;;;;7.43;3.83;;;;;;;;;;10385654;28;20106;-59
2023/07/01 21:46:26;;;;;;;5.13;4.18;;;;;;;;;;10399190;28;20516;-60
2023/07/01 21:51:27;;;;;;;6.70;4.70;;;;;;;;;;10380906;28;20428;-59
2023/07/01 21:56:39;;;;;;;13.23;4.63;;;;;;;;;;10367444;28;20049;-59
2023/07/01 22:01:45;;;;;;;7.93;4.88;;;;;;;;;;10379013;28;20083;-60
2023/07/01 22:06:47;;;;;;;8.98;5.07;;;;;;;;;;10389761;28;20271;-61
2023/07/01 22:11:48;;;;;;;13.18;5.72;;;;;;;;;;10401012;28;20185;-61
2023/07/01 22:16:49;;;;;;;8.13;5.45;;;;;;;;;;10384037;28;20172;-61
2023/07/01 22:21:49;;;;;;;9.05;4.70;;;;;;;;;;10397002;28;20693;-61
2023/07/01 22:26:50;;;;;;;6.90;4.57;;;;;;;;;;10389706;28;20033;-60
2023/07/01 22:31:50;;;;;;;7.57;4.65;;;;;;;;;;10375932;28;20033;-60
2023/07/01 22:36:51;;;;;;;8.90;5.63;;;;;;;;;;10375121;28;20029;-61
2023/07/01 22:41:51;;;;;;;9.35;5.88;;;;;;;;;;10373811;28;20046;-61
2023/07/01 22:46:52;;;;;;;8.57;6.15;;;;;;;;;;10395858;28;20034;-61
2023/07/01 22:51:53;;;;;;;11.65;6.35;;;;;;;;;;10397827;28;20025;-60
2023/07/01 22:56:53;;;;;;;7.43;5.68;;;;;;;;;;10385348;28;20037;-62
2023/07/01 23:01:54;;;;;;;8.57;6.20;;;;;;;;;;10373027;28;20076;-61
2023/07/01 23:06:54;;;;;;;7.55;5.80;;;;;;;;;;10390800;28;20022;-61
2023/07/01 23:11:55;;;;;;;6.90;5.70;;;;;;;;;;10397434;28;20037;-61
2023/07/01 23:16:55;;;;;;;9.30;6.28;;;;;;;;;;10387055;28;20373;-60
2023/07/01 23:21:56;;;;;;;9.02;6.40;;;;;;;;;;10384490;28;20354;-61
2023/07/01 23:27:00;;;;;;;11.07;6.15;;;;;;;;;;10398043;28;20401;-60
2023/07/01 23:32:01;;;;;;;10.57;6.38;;;;;;;;;;10393148;28;20318;-61
2023/07/01 23:37:02;;;;;;;9.10;6.20;;;;;;;;;;10394828;28;20244;-60
2023/07/01 23:42:02;;;;;;;8.70;6.68;;;;;;;;;;10404321;28;20053;-61
2023/07/01 23:47:04;;;;;;;11.68;7.00;;;;;;;;;;10392095;28;20045;-61
2023/07/01 23:52:05;;;;;;;7.47;6.55;;;;;;;;;;10371971;28;20034;-61
2023/07/01 23:57:06;;;;;;;9.45;7.20;;;;;;;;;;10371381;28;20037;-61
